sensor_id;sensor_type;location;lat;lon;timestamp;P1;durP1;ratioP1;P2;durP2;ratioP2
20230;SDS011;10274;49.022;9.338;2022-11-20T00:02:09;4.50;;;2.77;;
20230;SDS011;10274;49.022;9.338;2022-11-20T00:04:36;3.37;;;2.43;;
20230;SDS011;10274;49.022;9.338;2022-11-20T00:07:04;3.50;;;2.60;;
20230;SDS011;10274;49.022;9.338;2022-11-20T00:09:30;2.83;;;1.90;;
20230;SDS011;10274;49.022;9.338;2022-11-20T00:11:57;3.70;;;2.97;;
20230;SDS011;10274;49.022;9.338;2022-11-20T00:14:24;3.37;;;2.67;;
20230;SDS011;10274;49.022;9.338;2022-11-20T00:16:51;4.23;;;3.00;;
20230;SDS011;10274;49.022;9.338;2022-11-20T00:19:17;3.80;;;2.40;;
20230;SDS011;10274;49.022;9.338;2022-11-20T00:21:44;4.90;;;2.97;;
20230;SDS011;10274;49.022;9.338;2022-11-20T00:24:12;2.30;;;2.10;;
20230;SDS011;10274;49.022;9.338;2022-11-20T00:26:39;5.53;;;3.30;;
20230;SDS011;10274;49.022;9.338;2022-11-20T00:29:08;3.70;;;2.40;;
20230;SDS011;10274;49.022;9.338;2022-11-20T00:31:35;3.00;;;2.70;;
20230;SDS011;10274;49.022;9.338;2022-11-20T00:34:02;5.07;;;3.30;;
20230;SDS011;10274;49.022;9.338;2022-11-20T00:36:31;4.33;;;2.90;;
20230;SDS011;10274;49.022;9.338;2022-11-20T00:38:59;2.97;;;2.67;;
20230;SDS011;10274;49.022;9.338;2022-11-20T00:41:27;4.40;;;2.77;;
20230;SDS011;10274;49.022;9.338;2022-11-20T00:43:55;5.80;;;3.57;;
20230;SDS011;10274;49.022;9.338;2022-11-20T00:46:22;5.77;;;3.10;;
20230;SDS011;10274;49.022;9.338;2022-11-20T00:48:50;3.33;;;2.63;;
20230;SDS011;10274;49.022;9.338;2022-11-20T00:51:18;6.03;;;3.60;;
20230;SDS011;10274;49.022;9.338;2022-11-20T00:53:46;3.67;;;2.73;;
20230;SDS011;10274;49.022;9.338;2022-11-20T00:56:13;6.50;;;3.90;;
20230;SDS011;10274;49.022;9.338;2022-11-20T00:58:42;5.03;;;3.33;;
20230;SDS011;10274;49.022;9.338;2022-11-20T01:01:11;4.70;;;3.70;;
20230;SDS011;10274;49.022;9.338;2022-11-20T01:03:40;5.77;;;4.37;;
20230;SDS011;10274;49.022;9.338;2022-11-20T01:06:09;5.93;;;4.17;;
20230;SDS011;10274;49.022;9.338;2022-11-20T01:08:37;4.10;;;3.20;;
20230;SDS011;10274;49.022;9.338;2022-11-20T01:11:05;4.40;;;3.37;;
20230;SDS011;10274;49.022;9.338;2022-11-20T01:13:34;5.67;;;3.77;;
20230;SDS011;10274;49.022;9.338;2022-11-20T01:16:06;4.60;;;3.10;;
20230;SDS011;10274;49.022;9.338;2022-11-20T01:18:34;5.37;;;4.17;;
20230;SDS011;10274;49.022;9.338;2022-11-20T01:21:02;4.70;;;3.30;;
20230;SDS011;10274;49.022;9.338;2022-11-20T01:23:31;3.97;;;2.60;;
20230;SDS011;10274;49.022;9.338;2022-11-20T01:25:59;4.63;;;3.37;;
20230;SDS011;10274;49.022;9.338;2022-11-20T01:28:27;6.00;;;3.57;;
20230;SDS011;10274;49.022;9.338;2022-11-20T01:30:54;4.30;;;3.03;;
20230;SDS011;10274;49.022;9.338;2022-11-20T01:33:23;3.97;;;2.47;;
20230;SDS011;10274;49.022;9.338;2022-11-20T01:35:50;4.80;;;2.90;;
20230;SDS011;10274;49.022;9.338;2022-11-20T01:38:16;6.60;;;3.77;;
20230;SDS011;10274;49.022;9.338;2022-11-20T01:40:45;4.87;;;3.00;;
20230;SDS011;10274;49.022;9.338;2022-11-20T01:43:12;5.00;;;3.03;;
20230;SDS011;10274;49.022;9.338;2022-11-20T01:48:44;4.73;;;3.47;;
20230;SDS011;10274;49.022;9.338;2022-11-20T01:51:19;4.97;;;3.50;;
20230;SDS011;10274;49.022;9.338;2022-11-20T01:53:51;4.70;;;3.17;;
20230;SDS011;10274;49.022;9.338;2022-11-20T01:56:20;4.83;;;2.97;;
20230;SDS011;10274;49.022;9.338;2022-11-20T01:58:48;7.27;;;3.43;;
20230;SDS011;10274;49.022;9.338;2022-11-20T02:01:19;4.23;;;3.47;;
20230;SDS011;10274;49.022;9.338;2022-11-20T02:03:48;5.90;;;3.33;;
20230;SDS011;10274;49.022;9.338;2022-11-20T02:06:16;4.93;;;3.57;;
20230;SDS011;10274;49.022;9.338;2022-11-20T02:08:48;5.70;;;3.37;;
20230;SDS011;10274;49.022;9.338;2022-11-20T02:11:16;3.93;;;3.20;;
20230;SDS011;10274;49.022;9.338;2022-11-20T02:13:43;4.03;;;2.97;;
20230;SDS011;10274;49.022;9.338;2022-11-20T02:16:14;5.33;;;2.97;;
20230;SDS011;10274;49.022;9.338;2022-11-20T02:18:44;7.73;;;3.37;;
20230;SDS011;10274;49.022;9.338;2022-11-20T02:21:14;2.20;;;2.00;;
20230;SDS011;10274;49.022;9.338;2022-11-20T02:26:38;3.80;;;2.83;;
20230;SDS011;10274;49.022;9.338;2022-11-20T02:29:08;4.00;;;2.13;;
20230;SDS011;10274;49.022;9.338;2022-11-20T02:31:36;4.20;;;3.37;;
20230;SDS011;10274;49.022;9.338;2022-11-20T02:34:04;4.10;;;2.83;;
20230;SDS011;10274;49.022;9.338;2022-11-20T02:36:32;3.67;;;2.73;;
20230;SDS011;10274;49.022;9.338;2022-11-20T02:39:00;3.53;;;2.50;;
20230;SDS011;10274;49.022;9.338;2022-11-20T02:41:33;4.13;;;3.20;;
20230;SDS011;10274;49.022;9.338;2022-11-20T02:44:01;5.50;;;3.30;;
20230;SDS011;10274;49.022;9.338;2022-11-20T02:46:28;5.50;;;2.93;;
20230;SDS011;10274;49.022;9.338;2022-11-20T02:48:55;4.93;;;3.40;;
20230;SDS011;10274;49.022;9.338;2022-11-20T02:51:22;3.07;;;2.77;;
20230;SDS011;10274;49.022;9.338;2022-11-20T02:53:49;3.80;;;2.60;;
20230;SDS011;10274;49.022;9.338;2022-11-20T02:56:16;4.87;;;3.30;;
20230;SDS011;10274;49.022;9.338;2022-11-20T02:58:45;4.50;;;2.90;;
20230;SDS011;10274;49.022;9.338;2022-11-20T03:01:12;3.67;;;2.90;;
20230;SDS011;10274;49.022;9.338;2022-11-20T03:03:39;3.63;;;2.43;;
20230;SDS011;10274;49.022;9.338;2022-11-20T03:06:05;3.33;;;2.17;;
20230;SDS011;10274;49.022;9.338;2022-11-20T03:08:32;2.70;;;2.03;;
20230;SDS011;10274;49.022;9.338;2022-11-20T03:11:01;4.60;;;3.50;;
20230;SDS011;10274;49.022;9.338;2022-11-20T03:13:29;4.50;;;3.20;;
20230;SDS011;10274;49.022;9.338;2022-11-20T03:15:57;4.53;;;2.90;;
20230;SDS011;10274;49.022;9.338;2022-11-20T03:18:24;4.00;;;3.23;;
20230;SDS011;10274;49.022;9.338;2022-11-20T03:20:56;2.47;;;2.27;;
20230;SDS011;10274;49.022;9.338;2022-11-20T03:23:23;5.53;;;2.43;;
20230;SDS011;10274;49.022;9.338;2022-11-20T03:25:50;2.63;;;2.40;;
20230;SDS011;10274;49.022;9.338;2022-11-20T03:28:17;3.20;;;2.27;;
20230;SDS011;10274;49.022;9.338;2022-11-20T03:30:44;2.73;;;2.30;;
20230;SDS011;10274;49.022;9.338;2022-11-20T03:33:12;3.60;;;2.10;;
20230;SDS011;10274;49.022;9.338;2022-11-20T03:35:38;2.97;;;2.30;;
20230;SDS011;10274;49.022;9.338;2022-11-20T03:38:05;2.83;;;1.70;;
20230;SDS011;10274;49.022;9.338;2022-11-20T03:40:33;2.90;;;1.97;;
20230;SDS011;10274;49.022;9.338;2022-11-20T03:43:00;2.73;;;1.83;;
20230;SDS011;10274;49.022;9.338;2022-11-20T03:45:27;4.30;;;2.07;;
20230;SDS011;10274;49.022;9.338;2022-11-20T03:47:53;2.03;;;1.73;;
20230;SDS011;10274;49.022;9.338;2022-11-20T03:50:21;2.07;;;1.80;;
20230;SDS011;10274;49.022;9.338;2022-11-20T03:52:48;2.70;;;2.10;;
20230;SDS011;10274;49.022;9.338;2022-11-20T03:55:15;2.13;;;1.60;;
20230;SDS011;10274;49.022;9.338;2022-11-20T03:57:42;1.90;;;1.70;;
20230;SDS011;10274;49.022;9.338;2022-11-20T04:00:09;2.67;;;1.90;;
20230;SDS011;10274;49.022;9.338;2022-11-20T04:02:36;2.57;;;2.00;;
20230;SDS011;10274;49.022;9.338;2022-11-20T04:05:03;2.27;;;2.07;;
20230;SDS011;10274;49.022;9.338;2022-11-20T04:07:33;2.20;;;1.80;;
20230;SDS011;10274;49.022;9.338;2022-11-20T04:10:00;2.33;;;1.83;;
20230;SDS011;10274;49.022;9.338;2022-11-20T04:12:26;2.43;;;1.43;;
20230;SDS011;10274;49.022;9.338;2022-11-20T04:14:53;2.10;;;1.73;;
20230;SDS011;10274;49.022;9.338;2022-11-20T04:17:20;2.33;;;1.53;;
20230;SDS011;10274;49.022;9.338;2022-11-20T04:19:46;1.70;;;1.37;;
20230;SDS011;10274;49.022;9.338;2022-11-20T04:22:13;2.60;;;2.40;;
20230;SDS011;10274;49.022;9.338;2022-11-20T04:24:41;2.83;;;1.73;;
20230;SDS011;10274;49.022;9.338;2022-11-20T04:27:08;1.70;;;1.60;;
20230;SDS011;10274;49.022;9.338;2022-11-20T04:29:35;1.47;;;1.30;;
20230;SDS011;10274;49.022;9.338;2022-11-20T04:32:01;2.40;;;1.67;;
20230;SDS011;10274;49.022;9.338;2022-11-20T04:34:28;1.53;;;1.40;;
20230;SDS011;10274;49.022;9.338;2022-11-20T04:36:55;1.70;;;1.60;;
20230;SDS011;10274;49.022;9.338;2022-11-20T04:39:21;1.90;;;1.20;;
20230;SDS011;10274;49.022;9.338;2022-11-20T04:41:49;1.53;;;1.43;;
20230;SDS011;10274;49.022;9.338;2022-11-20T04:44:37;1.60;;;1.23;;
20230;SDS011;10274;49.022;9.338;2022-11-20T04:47:03;1.37;;;1.07;;
20230;SDS011;10274;49.022;9.338;2022-11-20T04:49:31;2.67;;;1.27;;
20230;SDS011;10274;49.022;9.338;2022-11-20T04:51:58;1.67;;;1.43;;
20230;SDS011;10274;49.022;9.338;2022-11-20T04:54:25;1.03;;;0.90;;
20230;SDS011;10274;49.022;9.338;2022-11-20T04:56:53;1.67;;;1.47;;
20230;SDS011;10274;49.022;9.338;2022-11-20T04:59:20;2.23;;;1.77;;
20230;SDS011;10274;49.022;9.338;2022-11-20T05:01:47;2.23;;;1.10;;
20230;SDS011;10274;49.022;9.338;2022-11-20T05:04:14;1.43;;;1.20;;
20230;SDS011;10274;49.022;9.338;2022-11-20T05:06:40;1.20;;;1.00;;
20230;SDS011;10274;49.022;9.338;2022-11-20T05:09:07;1.57;;;1.30;;
20230;SDS011;10274;49.022;9.338;2022-11-20T05:11:34;1.50;;;1.40;;
20230;SDS011;10274;49.022;9.338;2022-11-20T05:14:02;1.07;;;1.00;;
20230;SDS011;10274;49.022;9.338;2022-11-20T05:16:28;1.53;;;1.13;;
20230;SDS011;10274;49.022;9.338;2022-11-20T05:18:55;1.50;;;1.30;;
20230;SDS011;10274;49.022;9.338;2022-11-20T05:21:22;2.60;;;1.93;;
20230;SDS011;10274;49.022;9.338;2022-11-20T05:23:49;0.90;;;0.90;;
20230;SDS011;10274;49.022;9.338;2022-11-20T05:26:16;1.20;;;1.10;;
20230;SDS011;10274;49.022;9.338;2022-11-20T05:28:44;1.63;;;1.40;;
20230;SDS011;10274;49.022;9.338;2022-11-20T05:31:13;1.37;;;1.27;;
20230;SDS011;10274;49.022;9.338;2022-11-20T05:33:42;1.27;;;1.07;;
20230;SDS011;10274;49.022;9.338;2022-11-20T05:36:10;1.27;;;1.00;;
20230;SDS011;10274;49.022;9.338;2022-11-20T05:38:38;1.23;;;1.13;;
20230;SDS011;10274;49.022;9.338;2022-11-20T05:41:06;1.20;;;1.10;;
20230;SDS011;10274;49.022;9.338;2022-11-20T05:43:34;1.23;;;1.13;;
20230;SDS011;10274;49.022;9.338;2022-11-20T05:46:02;1.80;;;1.60;;
20230;SDS011;10274;49.022;9.338;2022-11-20T05:48:30;1.83;;;1.63;;
20230;SDS011;10274;49.022;9.338;2022-11-20T05:50:58;1.53;;;1.40;;
20230;SDS011;10274;49.022;9.338;2022-11-20T05:53:25;1.53;;;1.03;;
20230;SDS011;10274;49.022;9.338;2022-11-20T05:55:58;1.30;;;1.07;;
20230;SDS011;10274;49.022;9.338;2022-11-20T05:58:25;0.93;;;0.90;;
20230;SDS011;10274;49.022;9.338;2022-11-20T06:00:52;1.43;;;0.83;;
20230;SDS011;10274;49.022;9.338;2022-11-20T06:03:19;1.23;;;1.00;;
20230;SDS011;10274;49.022;9.338;2022-11-20T06:05:47;1.50;;;1.33;;
20230;SDS011;10274;49.022;9.338;2022-11-20T06:08:14;1.40;;;1.10;;
20230;SDS011;10274;49.022;9.338;2022-11-20T06:10:40;0.83;;;0.80;;
20230;SDS011;10274;49.022;9.338;2022-11-20T06:13:07;1.43;;;1.10;;
20230;SDS011;10274;49.022;9.338;2022-11-20T06:15:34;1.20;;;1.10;;
20230;SDS011;10274;49.022;9.338;2022-11-20T06:18:01;1.87;;;0.80;;
20230;SDS011;10274;49.022;9.338;2022-11-20T06:20:27;1.00;;;0.90;;
20230;SDS011;10274;49.022;9.338;2022-11-20T06:22:55;0.87;;;0.87;;
20230;SDS011;10274;49.022;9.338;2022-11-20T06:25:22;3.43;;;1.13;;
20230;SDS011;10274;49.022;9.338;2022-11-20T06:27:49;1.37;;;0.90;;
20230;SDS011;10274;49.022;9.338;2022-11-20T06:30:15;1.43;;;1.20;;
20230;SDS011;10274;49.022;9.338;2022-11-20T06:32:42;1.03;;;0.90;;
20230;SDS011;10274;49.022;9.338;2022-11-20T06:35:09;1.17;;;1.00;;
20230;SDS011;10274;49.022;9.338;2022-11-20T06:37:36;1.93;;;1.70;;
20230;SDS011;10274;49.022;9.338;2022-11-20T06:40:05;1.23;;;1.13;;
20230;SDS011;10274;49.022;9.338;2022-11-20T06:42:32;1.60;;;1.30;;
20230;SDS011;10274;49.022;9.338;2022-11-20T06:44:59;1.90;;;1.30;;
20230;SDS011;10274;49.022;9.338;2022-11-20T06:47:26;1.67;;;1.27;;
20230;SDS011;10274;49.022;9.338;2022-11-20T06:49:52;1.70;;;1.10;;
20230;SDS011;10274;49.022;9.338;2022-11-20T06:52:19;1.33;;;1.23;;
20230;SDS011;10274;49.022;9.338;2022-11-20T06:54:46;1.30;;;1.20;;
20230;SDS011;10274;49.022;9.338;2022-11-20T06:57:14;1.73;;;0.90;;
20230;SDS011;10274;49.022;9.338;2022-11-20T06:59:40;1.33;;;1.23;;
20230;SDS011;10274;49.022;9.338;2022-11-20T07:02:09;1.47;;;1.00;;
20230;SDS011;10274;49.022;9.338;2022-11-20T07:04:35;1.30;;;1.03;;
20230;SDS011;10274;49.022;9.338;2022-11-20T07:07:02;1.27;;;1.03;;
20230;SDS011;10274;49.022;9.338;2022-11-20T07:09:29;0.97;;;0.87;;
20230;SDS011;10274;49.022;9.338;2022-11-20T07:11:55;1.60;;;1.07;;
20230;SDS011;10274;49.022;9.338;2022-11-20T07:14:24;2.20;;;1.47;;
20230;SDS011;10274;49.022;9.338;2022-11-20T07:16:50;1.27;;;1.13;;
20230;SDS011;10274;49.022;9.338;2022-11-20T07:19:17;1.17;;;1.03;;
20230;SDS011;10274;49.022;9.338;2022-11-20T07:21:44;1.10;;;1.07;;
20230;SDS011;10274;49.022;9.338;2022-11-20T07:24:11;2.70;;;1.70;;
20230;SDS011;10274;49.022;9.338;2022-11-20T07:26:37;1.17;;;1.07;;
20230;SDS011;10274;49.022;9.338;2022-11-20T07:29:04;0.93;;;0.93;;
20230;SDS011;10274;49.022;9.338;2022-11-20T07:31:32;2.70;;;1.27;;
20230;SDS011;10274;49.022;9.338;2022-11-20T07:33:59;1.03;;;1.00;;
20230;SDS011;10274;49.022;9.338;2022-11-20T07:36:26;1.10;;;0.70;;
20230;SDS011;10274;49.022;9.338;2022-11-20T07:38:52;1.83;;;1.60;;
20230;SDS011;10274;49.022;9.338;2022-11-20T07:41:19;1.47;;;1.37;;
20230;SDS011;10274;49.022;9.338;2022-11-20T07:43:46;1.00;;;0.90;;
20230;SDS011;10274;49.022;9.338;2022-11-20T07:46:12;1.30;;;1.20;;
20230;SDS011;10274;49.022;9.338;2022-11-20T07:48:40;1.60;;;0.90;;
20230;SDS011;10274;49.022;9.338;2022-11-20T07:51:07;1.03;;;1.00;;
20230;SDS011;10274;49.022;9.338;2022-11-20T07:53:34;1.33;;;1.10;;
20230;SDS011;10274;49.022;9.338;2022-11-20T07:56:01;1.00;;;0.90;;
20230;SDS011;10274;49.022;9.338;2022-11-20T07:58:28;1.00;;;0.97;;
20230;SDS011;10274;49.022;9.338;2022-11-20T08:00:57;1.37;;;1.20;;
20230;SDS011;10274;49.022;9.338;2022-11-20T08:03:24;1.03;;;0.80;;
20230;SDS011;10274;49.022;9.338;2022-11-20T08:05:52;2.10;;;1.17;;
20230;SDS011;10274;49.022;9.338;2022-11-20T08:08:19;1.50;;;1.03;;
20230;SDS011;10274;49.022;9.338;2022-11-20T08:10:46;2.10;;;2.00;;
20230;SDS011;10274;49.022;9.338;2022-11-20T08:13:12;1.10;;;0.90;;
20230;SDS011;10274;49.022;9.338;2022-11-20T08:15:57;1.00;;;0.90;;
20230;SDS011;10274;49.022;9.338;2022-11-20T08:18:24;0.90;;;0.90;;
20230;SDS011;10274;49.022;9.338;2022-11-20T08:20:50;0.80;;;0.60;;
20230;SDS011;10274;49.022;9.338;2022-11-20T08:23:18;1.77;;;1.03;;
20230;SDS011;10274;49.022;9.338;2022-11-20T08:25:48;0.83;;;0.83;;
20230;SDS011;10274;49.022;9.338;2022-11-20T08:28:15;0.57;;;0.57;;
20230;SDS011;10274;49.022;9.338;2022-11-20T08:30:42;0.83;;;0.83;;
20230;SDS011;10274;49.022;9.338;2022-11-20T08:33:10;1.07;;;1.07;;
20230;SDS011;10274;49.022;9.338;2022-11-20T08:35:38;1.37;;;1.20;;
20230;SDS011;10274;49.022;9.338;2022-11-20T08:38:08;1.30;;;1.00;;
20230;SDS011;10274;49.022;9.338;2022-11-20T08:40:35;1.67;;;1.23;;
20230;SDS011;10274;49.022;9.338;2022-11-20T08:43:02;1.43;;;1.30;;
20230;SDS011;10274;49.022;9.338;2022-11-20T08:45:29;1.27;;;1.13;;
20230;SDS011;10274;49.022;9.338;2022-11-20T08:47:59;1.20;;;1.03;;
20230;SDS011;10274;49.022;9.338;2022-11-20T08:50:26;1.23;;;1.13;;
20230;SDS011;10274;49.022;9.338;2022-11-20T08:52:52;1.57;;;1.20;;
20230;SDS011;10274;49.022;9.338;2022-11-20T08:55:21;0.80;;;0.80;;
20230;SDS011;10274;49.022;9.338;2022-11-20T08:57:47;1.20;;;1.10;;
20230;SDS011;10274;49.022;9.338;2022-11-20T09:00:15;1.80;;;1.30;;
20230;SDS011;10274;49.022;9.338;2022-11-20T09:02:42;1.27;;;1.17;;
20230;SDS011;10274;49.022;9.338;2022-11-20T09:05:09;1.80;;;1.20;;
20230;SDS011;10274;49.022;9.338;2022-11-20T09:07:35;1.20;;;0.90;;
20230;SDS011;10274;49.022;9.338;2022-11-20T09:10:02;2.03;;;1.40;;
20230;SDS011;10274;49.022;9.338;2022-11-20T09:12:31;0.63;;;0.63;;
20230;SDS011;10274;49.022;9.338;2022-11-20T09:14:58;0.93;;;0.93;;
20230;SDS011;10274;49.022;9.338;2022-11-20T09:17:24;1.40;;;1.00;;
20230;SDS011;10274;49.022;9.338;2022-11-20T09:19:51;1.10;;;1.00;;
20230;SDS011;10274;49.022;9.338;2022-11-20T09:22:18;1.07;;;0.90;;
20230;SDS011;10274;49.022;9.338;2022-11-20T09:24:44;1.37;;;1.03;;
20230;SDS011;10274;49.022;9.338;2022-11-20T09:27:11;1.40;;;1.07;;
20230;SDS011;10274;49.022;9.338;2022-11-20T09:29:39;0.97;;;0.67;;
20230;SDS011;10274;49.022;9.338;2022-11-20T09:32:06;1.10;;;1.00;;
20230;SDS011;10274;49.022;9.338;2022-11-20T09:34:33;2.53;;;1.50;;
20230;SDS011;10274;49.022;9.338;2022-11-20T09:36:59;1.50;;;1.40;;
20230;SDS011;10274;49.022;9.338;2022-11-20T09:39:26;0.93;;;0.83;;
20230;SDS011;10274;49.022;9.338;2022-11-20T09:42:04;2.50;;;1.27;;
20230;SDS011;10274;49.022;9.338;2022-11-20T09:44:47;1.20;;;1.10;;
20230;SDS011;10274;49.022;9.338;2022-11-20T09:47:23;1.40;;;1.17;;
20230;SDS011;10274;49.022;9.338;2022-11-20T09:49:59;1.13;;;1.10;;
20230;SDS011;10274;49.022;9.338;2022-11-20T09:52:37;1.87;;;1.53;;
20230;SDS011;10274;49.022;9.338;2022-11-20T09:55:12;0.70;;;0.70;;
20230;SDS011;10274;49.022;9.338;2022-11-20T09:57:41;1.27;;;0.97;;
20230;SDS011;10274;49.022;9.338;2022-11-20T10:00:12;0.90;;;0.77;;
20230;SDS011;10274;49.022;9.338;2022-11-20T10:02:42;0.73;;;0.73;;
20230;SDS011;10274;49.022;9.338;2022-11-20T10:05:15;2.57;;;1.80;;
20230;SDS011;10274;49.022;9.338;2022-11-20T10:07:47;2.60;;;1.40;;
20230;SDS011;10274;49.022;9.338;2022-11-20T10:10:22;1.40;;;1.23;;
20230;SDS011;10274;49.022;9.338;2022-11-20T10:13:00;1.20;;;1.10;;
20230;SDS011;10274;49.022;9.338;2022-11-20T10:15:37;1.50;;;1.40;;
20230;SDS011;10274;49.022;9.338;2022-11-20T10:18:16;1.43;;;1.10;;
20230;SDS011;10274;49.022;9.338;2022-11-20T10:20:54;1.23;;;1.17;;
20230;SDS011;10274;49.022;9.338;2022-11-20T10:23:37;1.20;;;1.10;;
20230;SDS011;10274;49.022;9.338;2022-11-20T10:26:33;4.50;;;1.20;;
20230;SDS011;10274;49.022;9.338;2022-11-20T10:29:09;1.10;;;1.00;;
20230;SDS011;10274;49.022;9.338;2022-11-20T10:31:40;1.20;;;0.97;;
20230;SDS011;10274;49.022;9.338;2022-11-20T10:34:14;1.47;;;1.30;;
20230;SDS011;10274;49.022;9.338;2022-11-20T10:36:45;1.67;;;1.00;;
20230;SDS011;10274;49.022;9.338;2022-11-20T10:39:17;1.40;;;1.30;;
20230;SDS011;10274;49.022;9.338;2022-11-20T10:41:49;0.80;;;0.80;;
20230;SDS011;10274;49.022;9.338;2022-11-20T10:44:19;0.63;;;0.63;;
20230;SDS011;10274;49.022;9.338;2022-11-20T10:47:04;0.80;;;0.80;;
20230;SDS011;10274;49.022;9.338;2022-11-20T10:49:36;0.70;;;0.70;;
20230;SDS011;10274;49.022;9.338;2022-11-20T10:52:04;0.83;;;0.70;;
20230;SDS011;10274;49.022;9.338;2022-11-20T10:54:39;1.00;;;0.70;;
20230;SDS011;10274;49.022;9.338;2022-11-20T10:57:15;1.33;;;1.20;;
20230;SDS011;10274;49.022;9.338;2022-11-20T10:59:53;1.40;;;1.07;;
20230;SDS011;10274;49.022;9.338;2022-11-20T11:02:33;1.13;;;0.97;;
20230;SDS011;10274;49.022;9.338;2022-11-20T11:05:06;1.43;;;1.33;;
20230;SDS011;10274;49.022;9.338;2022-11-20T11:07:40;1.10;;;1.00;;
20230;SDS011;10274;49.022;9.338;2022-11-20T11:10:13;1.20;;;1.10;;
20230;SDS011;10274;49.022;9.338;2022-11-20T11:12:43;0.90;;;0.90;;
20230;SDS011;10274;49.022;9.338;2022-11-20T11:15:12;1.23;;;0.90;;
20230;SDS011;10274;49.022;9.338;2022-11-20T11:17:46;0.93;;;0.90;;
20230;SDS011;10274;49.022;9.338;2022-11-20T11:20:17;0.80;;;0.80;;
20230;SDS011;10274;49.022;9.338;2022-11-20T11:22:45;1.00;;;0.97;;
20230;SDS011;10274;49.022;9.338;2022-11-20T11:28:02;1.60;;;0.87;;
20230;SDS011;10274;49.022;9.338;2022-11-20T11:30:40;0.90;;;0.90;;
20230;SDS011;10274;49.022;9.338;2022-11-20T11:33:11;1.30;;;1.20;;
20230;SDS011;10274;49.022;9.338;2022-11-20T11:35:45;1.50;;;1.03;;
20230;SDS011;10274;49.022;9.338;2022-11-20T11:38:13;1.23;;;1.07;;
20230;SDS011;10274;49.022;9.338;2022-11-20T11:40:43;1.63;;;1.23;;
20230;SDS011;10274;49.022;9.338;2022-11-20T11:43:17;1.00;;;0.97;;
20230;SDS011;10274;49.022;9.338;2022-11-20T11:46:02;1.73;;;1.13;;
20230;SDS011;10274;49.022;9.338;2022-11-20T11:48:36;5.13;;;2.03;;
20230;SDS011;10274;49.022;9.338;2022-11-20T11:51:07;1.63;;;1.53;;
20230;SDS011;10274;49.022;9.338;2022-11-20T11:53:34;2.53;;;1.63;;
20230;SDS011;10274;49.022;9.338;2022-11-20T11:56:08;2.50;;;1.93;;
20230;SDS011;10274;49.022;9.338;2022-11-20T11:58:40;1.60;;;1.03;;
20230;SDS011;10274;49.022;9.338;2022-11-20T12:01:14;1.77;;;1.60;;
20230;SDS011;10274;49.022;9.338;2022-11-20T12:03:54;1.60;;;1.50;;
20230;SDS011;10274;49.022;9.338;2022-11-20T12:06:26;1.20;;;1.10;;
20230;SDS011;10274;49.022;9.338;2022-11-20T12:08:57;1.27;;;1.17;;
20230;SDS011;10274;49.022;9.338;2022-11-20T12:11:29;1.13;;;0.90;;
20230;SDS011;10274;49.022;9.338;2022-11-20T12:14:02;1.27;;;1.17;;
20230;SDS011;10274;49.022;9.338;2022-11-20T12:16:36;1.07;;;0.93;;
20230;SDS011;10274;49.022;9.338;2022-11-20T12:19:08;0.93;;;0.93;;
20230;SDS011;10274;49.022;9.338;2022-11-20T12:21:40;1.90;;;1.33;;
20230;SDS011;10274;49.022;9.338;2022-11-20T12:24:32;1.67;;;0.90;;
20230;SDS011;10274;49.022;9.338;2022-11-20T12:27:15;1.20;;;1.10;;
20230;SDS011;10274;49.022;9.338;2022-11-20T12:30:07;0.87;;;0.87;;
20230;SDS011;10274;49.022;9.338;2022-11-20T12:32:39;1.47;;;1.37;;
20230;SDS011;10274;49.022;9.338;2022-11-20T12:35:35;1.17;;;1.07;;
20230;SDS011;10274;49.022;9.338;2022-11-20T12:38:20;1.20;;;1.10;;
20230;SDS011;10274;49.022;9.338;2022-11-20T12:41:00;1.00;;;0.90;;
20230;SDS011;10274;49.022;9.338;2022-11-20T12:43:39;1.17;;;1.07;;
20230;SDS011;10274;49.022;9.338;2022-11-20T12:46:34;1.23;;;1.13;;
20230;SDS011;10274;49.022;9.338;2022-11-20T12:49:08;0.77;;;0.60;;
20230;SDS011;10274;49.022;9.338;2022-11-20T12:52:06;4.07;;;0.77;;
20230;SDS011;10274;49.022;9.338;2022-11-20T12:54:53;0.83;;;0.60;;
20230;SDS011;10274;49.022;9.338;2022-11-20T12:57:37;0.60;;;0.50;;
20230;SDS011;10274;49.022;9.338;2022-11-20T13:00:14;1.97;;;1.13;;
20230;SDS011;10274;49.022;9.338;2022-11-20T13:02:58;0.50;;;0.50;;
20230;SDS011;10274;49.022;9.338;2022-11-20T13:05:44;0.80;;;0.80;;
20230;SDS011;10274;49.022;9.338;2022-11-20T13:08:21;0.33;;;0.33;;
20230;SDS011;10274;49.022;9.338;2022-11-20T13:10:51;0.70;;;0.63;;
20230;SDS011;10274;49.022;9.338;2022-11-20T13:13:25;0.50;;;0.50;;
20230;SDS011;10274;49.022;9.338;2022-11-20T13:16:00;0.47;;;0.47;;
20230;SDS011;10274;49.022;9.338;2022-11-20T13:18:33;0.57;;;0.53;;
20230;SDS011;10274;49.022;9.338;2022-11-20T13:21:12;0.50;;;0.50;;
20230;SDS011;10274;49.022;9.338;2022-11-20T13:23:42;1.13;;;1.03;;
20230;SDS011;10274;49.022;9.338;2022-11-20T13:26:16;0.60;;;0.60;;
20230;SDS011;10274;49.022;9.338;2022-11-20T13:28:45;0.50;;;0.50;;
20230;SDS011;10274;49.022;9.338;2022-11-20T13:31:24;0.40;;;0.37;;
20230;SDS011;10274;49.022;9.338;2022-11-20T13:33:56;1.33;;;0.73;;
20230;SDS011;10274;49.022;9.338;2022-11-20T13:36:25;0.30;;;0.30;;
20230;SDS011;10274;49.022;9.338;2022-11-20T13:38:55;0.97;;;0.47;;
20230;SDS011;10274;49.022;9.338;2022-11-20T13:41:23;0.60;;;0.57;;
20230;SDS011;10274;49.022;9.338;2022-11-20T13:43:54;0.77;;;0.30;;
20230;SDS011;10274;49.022;9.338;2022-11-20T13:46:34;0.53;;;0.53;;
20230;SDS011;10274;49.022;9.338;2022-11-20T13:49:05;0.57;;;0.50;;
20230;SDS011;10274;49.022;9.338;2022-11-20T13:51:36;0.37;;;0.37;;
20230;SDS011;10274;49.022;9.338;2022-11-20T13:54:25;0.50;;;0.50;;
20230;SDS011;10274;49.022;9.338;2022-11-20T13:57:16;0.47;;;0.47;;
20230;SDS011;10274;49.022;9.338;2022-11-20T13:59:56;0.53;;;0.37;;
20230;SDS011;10274;49.022;9.338;2022-11-20T14:02:27;1.63;;;1.10;;
20230;SDS011;10274;49.022;9.338;2022-11-20T14:04:56;0.47;;;0.47;;
20230;SDS011;10274;49.022;9.338;2022-11-20T14:07:26;0.47;;;0.47;;
20230;SDS011;10274;49.022;9.338;2022-11-20T14:10:00;0.70;;;0.70;;
20230;SDS011;10274;49.022;9.338;2022-11-20T14:12:28;0.70;;;0.63;;
20230;SDS011;10274;49.022;9.338;2022-11-20T14:14:55;0.50;;;0.50;;
20230;SDS011;10274;49.022;9.338;2022-11-20T14:17:24;0.20;;;0.20;;
20230;SDS011;10274;49.022;9.338;2022-11-20T14:19:57;0.50;;;0.40;;
20230;SDS011;10274;49.022;9.338;2022-11-20T14:22:27;0.37;;;0.37;;
20230;SDS011;10274;49.022;9.338;2022-11-20T14:25:03;0.97;;;0.83;;
20230;SDS011;10274;49.022;9.338;2022-11-20T14:27:32;0.53;;;0.53;;
20230;SDS011;10274;49.022;9.338;2022-11-20T14:30:01;0.53;;;0.40;;
20230;SDS011;10274;49.022;9.338;2022-11-20T14:32:29;0.40;;;0.40;;
20230;SDS011;10274;49.022;9.338;2022-11-20T14:34:58;0.60;;;0.60;;
20230;SDS011;10274;49.022;9.338;2022-11-20T14:37:28;0.50;;;0.50;;
20230;SDS011;10274;49.022;9.338;2022-11-20T14:40:00;1.50;;;0.67;;
20230;SDS011;10274;49.022;9.338;2022-11-20T14:42:28;1.63;;;0.50;;
20230;SDS011;10274;49.022;9.338;2022-11-20T14:44:56;0.50;;;0.50;;
20230;SDS011;10274;49.022;9.338;2022-11-20T14:47:26;0.60;;;0.57;;
20230;SDS011;10274;49.022;9.338;2022-11-20T14:49:55;0.30;;;0.30;;
20230;SDS011;10274;49.022;9.338;2022-11-20T14:52:24;4.23;;;0.50;;
20230;SDS011;10274;49.022;9.338;2022-11-20T14:54:52;0.50;;;0.50;;
20230;SDS011;10274;49.022;9.338;2022-11-20T14:57:21;0.97;;;0.60;;
20230;SDS011;10274;49.022;9.338;2022-11-20T14:59:51;0.63;;;0.40;;
20230;SDS011;10274;49.022;9.338;2022-11-20T15:02:30;3.73;;;0.43;;
20230;SDS011;10274;49.022;9.338;2022-11-20T15:04:58;0.23;;;0.23;;
20230;SDS011;10274;49.022;9.338;2022-11-20T15:07:29;0.50;;;0.50;;
20230;SDS011;10274;49.022;9.338;2022-11-20T15:10:00;0.20;;;0.20;;
20230;SDS011;10274;49.022;9.338;2022-11-20T15:12:29;2.77;;;0.60;;
20230;SDS011;10274;49.022;9.338;2022-11-20T15:14:58;0.83;;;0.63;;